createdAt,value
2024-04-13T00:01:08.334Z,101192.31
2024-04-13T00:03:56.413Z,101192.30
2024-04-13T00:06:24.572Z,101197.26
2024-04-13T00:08:52.594Z,101199.71
2024-04-13T00:11:20.600Z,101196.89
2024-04-13T00:13:51.096Z,101202.88
2024-04-13T00:16:19.604Z,101204.27
2024-04-13T00:18:47.610Z,101205.85
2024-04-13T00:21:16.385Z,101202.88
2024-04-13T00:23:48.381Z,101209.51
2024-04-13T00:26:16.398Z,101208.30
2024-04-13T00:28:44.705Z,101211.20
2024-04-13T00:31:12.685Z,101208.43
2024-04-13T00:33:40.856Z,101215.30
2024-04-13T00:36:09.082Z,101210.85
2024-04-13T00:38:37.083Z,101213.59
2024-04-13T00:41:06.507Z,101213.61
2024-04-13T00:43:34.681Z,101203.75
2024-04-13T00:46:08.590Z,101211.71
2024-04-13T00:48:39.867Z,101210.14
2024-04-13T00:51:08.501Z,101209.56
2024-04-13T00:53:38.841Z,101206.66
2024-04-13T00:56:09.375Z,101214.81
2024-04-13T00:58:37.969Z,101210.95
2024-04-13T01:01:07.345Z,101214.61
2024-04-13T01:03:36.765Z,101216.29
2024-04-13T01:06:07.526Z,101217.88
2024-04-13T01:08:35.729Z,101216.39
2024-04-13T01:11:04.695Z,101213.19
2024-04-13T01:13:32.966Z,101212.53
2024-04-13T01:16:01.468Z,101215.86
2024-04-13T01:18:39.270Z,101210.83
2024-04-13T01:21:34.397Z,101211.21
2024-04-13T01:24:06.342Z,101212.14
2024-04-13T01:26:42.747Z,101209.35
2024-04-13T01:29:11.637Z,101208.95
2024-04-13T01:31:41.673Z,101206.30
2024-04-13T01:34:09.782Z,101205.63
2024-04-13T01:36:42.623Z,101202.27
2024-04-13T01:39:12.985Z,101208.98
2024-04-13T01:41:43.384Z,101214.59
2024-04-13T01:44:13.217Z,101211.25
2024-04-13T01:46:41.427Z,101209.88
2024-04-13T01:49:09.715Z,101204.02
2024-04-13T01:51:38.020Z,101206.63
2024-04-13T01:54:06.124Z,101205.05
2024-04-13T01:56:34.367Z,101204.45
2024-04-13T01:59:02.344Z,101204.46
2024-04-13T02:01:32.108Z,101208.86
2024-04-13T02:04:00.104Z,101216.17
2024-04-13T02:06:28.853Z,101221.45
2024-04-13T02:08:56.783Z,101218.73
2024-04-13T02:11:24.795Z,101218.16
2024-04-13T02:13:52.764Z,101216.48
2024-04-13T02:16:20.682Z,101208.77
2024-04-13T02:18:48.789Z,101207.05
2024-04-13T02:21:17.490Z,101206.86
2024-04-13T02:23:45.446Z,101211.23
2024-04-13T02:26:13.409Z,101212.02
2024-04-13T02:28:42.015Z,101211.83
2024-04-13T02:31:10.160Z,101202.99
2024-04-13T02:33:38.313Z,101204.90
2024-04-13T02:36:07.216Z,101205.08
2024-04-13T02:38:35.238Z,101203.88
2024-04-13T02:41:05.131Z,101205.77
2024-04-13T02:43:35.599Z,101204.09
2024-04-13T02:46:10.455Z,101193.44
2024-04-13T02:48:43.221Z,101196.20
2024-04-13T02:51:12.130Z,101199.13
2024-04-13T02:53:40.246Z,101195.42
2024-04-13T02:56:10.655Z,101193.02
2024-04-13T02:58:38.766Z,101193.84
2024-04-13T03:01:08.182Z,101194.64
2024-04-13T03:03:36.473Z,101195.33
2024-04-13T03:06:05.820Z,101198.05
2024-04-13T03:08:33.788Z,101199.39
2024-04-13T03:11:02.839Z,101200.61
2024-04-13T03:13:31.333Z,101207.34
2024-04-13T03:16:06.699Z,101206.59
2024-04-13T03:18:47.670Z,101205.10
2024-04-13T03:21:15.985Z,101201.82
2024-04-13T03:23:44.491Z,101202.28
2024-04-13T03:26:12.724Z,101196.73
2024-04-13T03:28:40.771Z,101201.98
2024-04-13T03:31:08.730Z,101205.56
2024-04-13T03:33:36.899Z,101203.39
2024-04-13T03:36:06.580Z,101202.70
2024-04-13T03:38:35.196Z,101204.73
2024-04-13T03:41:09.949Z,101201.34
2024-04-13T03:43:39.007Z,101201.28
2024-04-13T03:46:08.087Z,101205.46
2024-04-13T03:48:39.628Z,101205.97
2024-04-13T03:51:09.696Z,101205.21
2024-04-13T03:53:39.083Z,101203.89
2024-04-13T03:56:07.489Z,101200.91
2024-04-13T03:58:35.463Z,101200.05
2024-04-13T04:01:04.137Z,101200.98
2024-04-13T04:03:32.713Z,101203.38
2024-04-13T04:06:01.016Z,101204.39
2024-04-13T04:08:29.043Z,101201.89
2024-04-13T04:10:57.070Z,101204.52
2024-04-13T04:13:25.165Z,101199.35
2024-04-13T04:15:53.512Z,101200.38
2024-04-13T04:18:21.890Z,101201.11
2024-04-13T04:20:50.032Z,101203.05
2024-04-13T04:23:18.213Z,101203.89
2024-04-13T04:25:46.413Z,101207.45
2024-04-13T04:28:14.613Z,101204.30
2024-04-13T04:30:46.377Z,101203.22
2024-04-13T04:33:15.112Z,101197.81
2024-04-13T04:35:45.816Z,101196.85
2024-04-13T04:38:13.821Z,101193.86
2024-04-13T04:40:41.894Z,101194.23
2024-04-13T04:43:09.937Z,101196.45
2024-04-13T04:45:38.419Z,101195.73
2024-04-13T04:48:09.762Z,101197.09
2024-04-13T04:50:37.953Z,101200.16
2024-04-13T04:53:05.909Z,101198.58
2024-04-13T04:55:35.283Z,101202.23
2024-04-13T04:58:03.567Z,101203.20
2024-04-13T05:00:31.529Z,101201.55
2024-04-13T05:02:59.737Z,101199.69
2024-04-13T05:05:28.010Z,101199.29
2024-04-13T05:07:58.582Z,101197.59
2024-04-13T05:10:28.308Z,101197.85
2024-04-13T05:12:57.211Z,101198.60
2024-04-13T05:15:25.424Z,101199.64
2024-04-13T05:17:53.877Z,101199.21
2024-04-13T05:20:22.858Z,101199.83
2024-04-13T05:22:51.141Z,101202.42
2024-04-13T05:25:20.238Z,101208.66
2024-04-13T05:27:48.335Z,101203.70
2024-04-13T05:30:16.443Z,101202.69
2024-04-13T05:32:46.012Z,101205.63
2024-04-13T05:35:17.416Z,101204.88
2024-04-13T05:37:47.703Z,101207.77
2024-04-13T05:40:16.925Z,101207.43
2024-04-13T05:42:45.390Z,101208.48
2024-04-13T05:45:13.970Z,101209.83
2024-04-13T05:47:42.305Z,101215.75
2024-04-13T05:50:11.374Z,101211.45
2024-04-13T05:52:40.557Z,101205.91
2024-04-13T05:55:09.744Z,101212.58
2024-04-13T05:57:39.465Z,101215.27
2024-04-13T06:00:10.511Z,101213.80
2024-04-13T06:02:39.944Z,101216.95
2024-04-13T06:05:08.857Z,101216.45
2024-04-13T06:07:37.059Z,101214.02
2024-04-13T06:10:08.725Z,101213.76
2024-04-13T06:12:37.531Z,101215.98
2024-04-13T06:15:06.676Z,101213.51
2024-04-13T06:17:35.637Z,101213.02
2024-04-13T06:20:04.330Z,101212.38
2024-04-13T06:22:32.612Z,101211.97
2024-04-13T06:25:01.162Z,101210.16
2024-04-13T06:27:29.994Z,101206.14
2024-04-13T06:29:58.611Z,101208.73
2024-04-13T06:32:27.007Z,101213.00
2024-04-13T06:34:55.368Z,101214.70
2024-04-13T06:37:24.964Z,101217.45
2024-04-13T06:39:53.180Z,101215.11
2024-04-13T06:42:21.650Z,101213.98
2024-04-13T06:44:49.891Z,101216.38
2024-04-13T06:47:18.271Z,101218.23
2024-04-13T06:49:48.346Z,101220.07
2024-04-13T06:52:17.367Z,101220.84
2024-04-13T06:54:45.914Z,101219.70
2024-04-13T06:57:14.858Z,101216.72
2024-04-13T06:59:43.176Z,101216.23
2024-04-13T07:02:11.236Z,101218.45
2024-04-13T07:04:39.530Z,101217.70
2024-04-13T07:07:08.215Z,101216.64
2024-04-13T07:09:36.650Z,101217.06
2024-04-13T07:12:07.201Z,101216.81
2024-04-13T07:14:37.061Z,101217.23
2024-04-13T07:17:06.172Z,101216.86
2024-04-13T07:19:35.623Z,101221.45
2024-04-13T07:22:04.115Z,101212.22
2024-04-13T07:24:32.291Z,101208.73
2024-04-13T07:27:00.713Z,101207.55
2024-04-13T07:29:29.176Z,101206.73
2024-04-13T07:31:57.335Z,101204.70
2024-04-13T07:34:25.937Z,101198.31
2024-04-13T07:36:55.947Z,101200.61
2024-04-13T07:39:24.568Z,101198.27
2024-04-13T07:41:52.832Z,101199.49
2024-04-13T07:44:21.211Z,101200.34
2024-04-13T07:46:49.381Z,101197.72
2024-04-13T07:49:18.481Z,101198.27
2024-04-13T07:51:47.186Z,101197.30
2024-04-13T07:54:16.057Z,101198.92
2024-04-13T07:56:44.530Z,101201.85
2024-04-13T07:59:13.320Z,101201.14
2024-04-13T08:01:42.867Z,101206.13
2024-04-13T08:04:11.264Z,101206.06
2024-04-13T08:06:40.944Z,101210.48
2024-04-13T08:09:09.676Z,101211.88
2024-04-13T08:11:38.277Z,101212.45
2024-04-13T08:14:12.772Z,101212.23
2024-04-13T08:16:43.220Z,101215.98
2024-04-13T08:19:11.186Z,101209.36
2024-04-13T08:21:39.286Z,101208.98
2024-04-13T08:24:10.619Z,101211.77
2024-04-13T08:26:39.185Z,101208.73
2024-04-13T08:29:08.700Z,101213.98
2024-04-13T08:31:37.408Z,101209.50
2024-04-13T08:34:07.563Z,101218.00
2024-04-13T08:36:37.192Z,101225.84
2024-04-13T08:39:07.051Z,101220.69
2024-04-13T08:42:11.551Z,101220.41
2024-04-13T08:44:40.727Z,101224.93
2024-04-13T08:47:11.766Z,101218.86
2024-04-13T08:49:43.089Z,101214.15
2024-04-13T08:52:15.108Z,101212.21
2024-04-13T08:54:47.221Z,101218.13
2024-04-13T08:57:26.032Z,101213.60
2024-04-13T08:59:56.398Z,101208.70
2024-04-13T09:02:26.364Z,101201.80
2024-04-13T09:04:55.324Z,101204.43
2024-04-13T09:07:26.946Z,101208.30
2024-04-13T09:09:58.737Z,101200.83
2024-04-13T09:12:27.708Z,101185.56
2024-04-13T09:14:56.090Z,101195.34
2024-04-13T09:17:26.082Z,101193.45
2024-04-13T09:19:57.149Z,101198.52
2024-04-13T09:22:27.985Z,101187.03
2024-04-13T09:24:56.238Z,101181.55
2024-04-13T09:27:26.455Z,101181.23
2024-04-13T09:30:06.890Z,101178.23
2024-04-13T09:32:36.867Z,101183.30
2024-04-13T09:35:14.270Z,101170.13
2024-04-13T09:37:42.613Z,101171.61
2024-04-13T09:40:13.049Z,101172.57
2024-04-13T09:42:41.499Z,101164.90
2024-04-13T09:45:13.194Z,101160.81
2024-04-13T09:47:41.376Z,101160.59
2024-04-13T09:50:09.615Z,101170.45
2024-04-13T09:52:37.857Z,101177.10
2024-04-13T09:55:06.835Z,101167.69
2024-04-13T09:57:35.179Z,101169.19
2024-04-13T10:00:07.218Z,101164.41
2024-04-13T10:02:37.642Z,101159.40
2024-04-13T10:05:06.988Z,101158.71
2024-04-13T10:07:36.798Z,101164.14
2024-04-13T10:10:09.973Z,101157.25
2024-04-13T10:12:42.205Z,101163.81
2024-04-13T10:15:12.158Z,101165.45
2024-04-13T10:17:42.089Z,101161.70
2024-04-13T10:20:11.036Z,101155.71
2024-04-13T10:22:39.556Z,101154.30
2024-04-13T10:25:08.786Z,101150.02
2024-04-13T10:27:39.100Z,101139.45
2024-04-13T10:30:08.174Z,101124.48
2024-04-13T10:32:44.619Z,101122.29
2024-04-13T10:35:17.587Z,101117.95
2024-04-13T10:37:46.006Z,101126.03
2024-04-13T10:40:25.457Z,101123.38
2024-04-13T10:43:04.728Z,101114.39
2024-04-13T10:45:33.780Z,101103.08
2024-04-13T10:48:07.021Z,101108.02
2024-04-13T10:50:36.862Z,101103.07
2024-04-13T10:53:05.281Z,101104.84
2024-04-13T10:55:33.442Z,101104.76
2024-04-13T10:58:01.792Z,101097.84
2024-04-13T11:00:31.182Z,101090.84
2024-04-13T11:03:00.559Z,101092.36
2024-04-13T11:05:30.035Z,101094.15
2024-04-13T11:07:58.229Z,101097.36
2024-04-13T11:10:27.305Z,101093.52
2024-04-13T11:12:56.989Z,101096.69
2024-04-13T11:15:25.560Z,101096.21
2024-04-13T11:17:53.808Z,101092.70
2024-04-13T11:20:25.665Z,101090.88
2024-04-13T11:22:57.021Z,101087.44
2024-04-13T11:25:25.829Z,101083.27
2024-04-13T11:27:54.550Z,101080.74
2024-04-13T11:30:23.601Z,101079.45
2024-04-13T11:32:52.788Z,101074.98
2024-04-13T11:35:21.765Z,101073.20
2024-04-13T11:37:57.108Z,101075.20
2024-04-13T11:40:25.287Z,101078.66
2024-04-13T11:42:55.910Z,101066.84
2024-04-13T11:45:26.688Z,101071.36
2024-04-13T11:47:55.531Z,101069.10
2024-04-13T11:50:25.112Z,101063.27
2024-04-13T11:52:53.406Z,101054.79
2024-04-13T11:55:25.942Z,101051.04
2024-04-13T11:57:54.478Z,101048.48
2024-04-13T12:00:23.405Z,101044.48
2024-04-13T12:02:51.780Z,101040.27
2024-04-13T12:05:22.320Z,101031.93
2024-04-13T12:07:54.452Z,101031.84
2024-04-13T12:10:23.743Z,101013.74
2024-04-13T12:12:52.478Z,101012.12
2024-04-13T12:15:20.910Z,101009.23
2024-04-13T12:17:49.492Z,101011.35
2024-04-13T12:20:17.709Z,101008.01
2024-04-13T12:22:46.335Z,101001.63
2024-04-13T12:25:16.245Z,101001.73
2024-04-13T12:27:45.231Z,100995.59
2024-04-13T12:30:13.980Z,100997.27
2024-04-13T12:32:42.657Z,100994.98
2024-04-13T12:35:12.376Z,101000.88
2024-04-13T12:37:44.907Z,100997.23
2024-04-13T12:40:18.729Z,100991.14
2024-04-13T12:42:47.826Z,100992.79
2024-04-13T12:45:16.495Z,100986.52
2024-04-13T12:47:44.969Z,100986.36
2024-04-13T12:50:13.381Z,100986.02
2024-04-13T12:52:41.809Z,100981.77
2024-04-13T12:55:10.083Z,100978.84
2024-04-13T12:57:40.428Z,100980.36
2024-04-13T13:00:11.064Z,100974.73
2024-04-13T13:02:39.773Z,100974.13
2024-04-13T13:05:08.653Z,100974.56
2024-04-13T13:07:37.890Z,100971.98
2024-04-13T13:10:08.318Z,100970.09
2024-04-13T13:12:38.158Z,100963.79
2024-04-13T13:15:08.395Z,100964.57
2024-04-13T13:17:36.580Z,100956.33
2024-04-13T13:20:06.510Z,100955.13
2024-04-13T13:22:35.228Z,100951.23
2024-04-13T13:25:04.625Z,100949.25
2024-04-13T13:27:34.545Z,100950.26
2024-04-13T13:30:04.417Z,100949.77
2024-04-13T13:32:34.732Z,100948.45
2024-04-13T13:35:03.578Z,100950.60
2024-04-13T13:37:35.070Z,100947.45
2024-04-13T13:40:04.178Z,100949.64
2024-04-13T13:42:32.972Z,100945.96
2024-04-13T13:45:02.403Z,100949.02
2024-04-13T13:47:58.661Z,100939.23
2024-04-13T13:50:34.388Z,100926.96
2024-04-13T13:53:10.147Z,100930.34
2024-04-13T13:55:41.791Z,100926.69
2024-04-13T13:58:15.009Z,100922.66
2024-04-13T14:00:47.682Z,100924.33
2024-04-13T14:03:24.494Z,100918.45
2024-04-13T14:06:10.913Z,100920.69
2024-04-13T14:08:46.094Z,100913.93
2024-04-13T14:11:28.564Z,100910.05
2024-04-13T14:14:13.983Z,100904.44
2024-04-13T14:16:53.255Z,100901.13
2024-04-13T14:19:27.212Z,100899.91
2024-04-13T14:22:05.657Z,100894.70
2024-04-13T14:24:40.746Z,100890.02
2024-04-13T14:27:24.267Z,100887.63
2024-04-13T14:29:58.657Z,100883.67
2024-04-13T14:32:32.511Z,100880.33
2024-04-13T14:35:09.099Z,100872.92
2024-04-13T14:37:47.229Z,100873.90
2024-04-13T14:40:25.660Z,100874.91
2024-04-13T14:43:06.654Z,100876.13
2024-04-13T14:45:39.373Z,100872.08
2024-04-13T14:48:16.784Z,100872.61
2024-04-13T14:50:50.905Z,100869.80
2024-04-13T14:53:25.165Z,100862.20
2024-04-13T14:56:02.675Z,100863.11
2024-04-13T14:58:30.917Z,100864.85
2024-04-13T15:01:07.020Z,100864.77
2024-04-13T15:03:37.456Z,100856.64
2024-04-13T15:06:07.080Z,100856.66
2024-04-13T15:08:36.132Z,100856.89
2024-04-13T15:11:05.664Z,100855.82
2024-04-13T15:13:34.498Z,100856.75
2024-04-13T15:16:03.807Z,100852.11
2024-04-13T15:18:33.360Z,100851.95
2024-04-13T15:21:05.148Z,100848.48
2024-04-13T15:23:33.965Z,100850.42
2024-04-13T15:26:05.779Z,100846.18
2024-04-13T15:28:37.624Z,100845.02
2024-04-13T15:31:08.431Z,100849.98
2024-04-13T15:33:43.857Z,100847.34
2024-04-13T15:36:12.236Z,100839.50
2024-04-13T15:38:40.734Z,100836.95
2024-04-13T15:41:09.241Z,100835.99
2024-04-13T15:43:38.867Z,100833.88
2024-04-13T15:46:08.041Z,100830.98
2024-04-13T15:48:37.680Z,100832.55
2024-04-13T15:51:07.337Z,100826.52
2024-04-13T15:53:38.337Z,100827.39
2024-04-13T15:56:10.003Z,100827.92
2024-04-13T15:58:40.149Z,100823.82
2024-04-13T16:01:08.841Z,100823.97
2024-04-13T16:03:37.838Z,100823.98
2024-04-13T16:06:07.342Z,100825.77
2024-04-13T16:08:39.482Z,100822.99
2024-04-13T16:11:08.314Z,100815.71
2024-04-13T16:13:38.342Z,100815.05
2024-04-13T16:16:17.845Z,100813.89
2024-04-13T16:18:50.273Z,100806.82
2024-04-13T16:21:20.399Z,100806.70
2024-04-13T16:23:48.950Z,100806.01
2024-04-13T16:26:17.803Z,100801.77
2024-04-13T16:28:46.343Z,100797.77
2024-04-13T16:31:14.762Z,100800.71
2024-04-13T16:33:43.251Z,100800.75
2024-04-13T16:36:11.823Z,100799.17
2024-04-13T16:38:40.587Z,100795.84
2024-04-13T16:41:09.586Z,100793.38
2024-04-13T16:43:37.740Z,100791.05
2024-04-13T16:46:06.329Z,100789.58
2024-04-13T16:48:35.613Z,100787.40
2024-04-13T16:51:05.651Z,100796.21
2024-04-13T16:53:35.956Z,100790.44
2024-04-13T16:56:06.665Z,100784.53
2024-04-13T16:58:35.802Z,100783.41
2024-04-13T17:01:04.819Z,100783.06
2024-04-13T17:03:33.320Z,100778.19
2024-04-13T17:06:02.375Z,100771.17
2024-04-13T17:08:30.746Z,100770.23
2024-04-13T17:10:59.581Z,100772.59
2024-04-13T17:13:29.279Z,100768.08
2024-04-13T17:15:57.884Z,100764.55
2024-04-13T17:18:26.257Z,100767.23
2024-04-13T17:20:55.380Z,100766.41
2024-04-13T17:23:23.614Z,100766.13
2024-04-13T17:25:53.477Z,100764.23
2024-04-13T17:28:21.870Z,100762.36
2024-04-13T17:30:50.829Z,100763.00
2024-04-13T17:33:19.784Z,100764.61
2024-04-13T17:35:48.123Z,100765.23
2024-04-13T17:38:17.308Z,100763.43
2024-04-13T17:40:46.401Z,100762.16
2024-04-13T17:43:14.935Z,100758.95
2024-04-13T17:45:43.120Z,100759.95
2024-04-13T17:48:12.312Z,100759.21
2024-04-13T17:50:41.648Z,100761.59
2024-04-13T17:53:13.274Z,100759.72
2024-04-13T17:55:43.632Z,100762.16
2024-04-13T17:58:12.600Z,100764.67
2024-04-13T18:00:42.145Z,100761.71
2024-04-13T18:03:11.808Z,100762.66
2024-04-13T18:05:41.095Z,100765.10
2024-04-13T18:08:11.313Z,100764.21
2024-04-13T18:10:43.201Z,100761.08
2024-04-13T18:13:11.769Z,100759.33
2024-04-13T18:15:40.578Z,100752.83
2024-04-13T18:18:10.175Z,100746.35
2024-04-13T18:20:41.342Z,100751.36
2024-04-13T18:23:10.077Z,100750.42
2024-04-13T18:25:39.599Z,100756.79
2024-04-13T18:28:09.568Z,100752.56
2024-04-13T18:30:39.441Z,100749.78
2024-04-13T18:33:09.965Z,100746.41
2024-04-13T18:35:40.038Z,100743.70
2024-04-13T18:38:11.420Z,100741.74
2024-04-13T18:40:40.469Z,100742.66
2024-04-13T18:43:10.317Z,100747.44
2024-04-13T18:45:40.449Z,100752.90
2024-04-13T18:48:10.722Z,100753.77
2024-04-13T18:50:41.193Z,100759.44
2024-04-13T18:53:10.193Z,100760.16
2024-04-13T18:55:40.652Z,100752.69
2024-04-13T18:58:09.827Z,100754.44
2024-04-13T19:00:40.957Z,100752.77
2024-04-13T19:03:11.110Z,100748.98
2024-04-13T19:05:41.257Z,100745.52
2024-04-13T19:08:13.808Z,100742.98
2024-04-13T19:10:43.420Z,100751.11
2024-04-13T19:13:13.119Z,100746.08
2024-04-13T19:15:52.383Z,100734.45
2024-04-13T19:18:27.092Z,100735.13
2024-04-13T19:20:58.488Z,100736.73
2024-04-13T19:23:28.055Z,100734.91
2024-04-13T19:26:01.939Z,100730.25
2024-04-13T19:28:31.891Z,100722.17
2024-04-13T19:31:02.499Z,100716.02
2024-04-13T19:33:32.903Z,100712.58
2024-04-13T19:36:02.800Z,100711.16
2024-04-13T19:38:33.861Z,100713.90
2024-04-13T19:41:03.786Z,100712.86
2024-04-13T19:43:34.461Z,100711.31
2024-04-13T19:46:04.803Z,100706.41
2024-04-13T19:48:34.913Z,100700.67
2024-04-13T19:51:07.950Z,100701.85
2024-04-13T19:53:39.329Z,100699.73
2024-04-13T19:56:09.575Z,100695.65
2024-04-13T19:58:39.407Z,100694.23
2024-04-13T20:01:10.233Z,100689.87
2024-04-13T20:03:41.085Z,100690.48
2024-04-13T20:06:11.092Z,100690.98
2024-04-13T20:08:45.650Z,100687.41
2024-04-13T20:11:15.091Z,100686.51
2024-04-13T20:13:45.186Z,100687.59
2024-04-13T20:16:32.570Z,100681.67
2024-04-13T20:19:05.605Z,100678.64
2024-04-13T20:21:41.129Z,100677.70
2024-04-13T20:24:13.592Z,100676.28
2024-04-13T20:26:43.029Z,100667.66
2024-04-13T20:29:12.043Z,100660.81
2024-04-13T20:31:40.655Z,100653.66
2024-04-13T20:34:10.426Z,100655.63
2024-04-13T20:36:39.937Z,100656.45
2024-04-13T20:39:09.927Z,100657.67
2024-04-13T20:41:38.680Z,100656.56
2024-04-13T20:44:08.291Z,100655.30
2024-04-13T20:46:38.465Z,100646.20
2024-04-13T20:49:07.664Z,100643.52
2024-04-13T20:51:36.322Z,100637.31
2024-04-13T20:54:06.298Z,100633.98
2024-04-13T20:56:35.644Z,100631.11
2024-04-13T20:59:05.998Z,100631.35
2024-04-13T21:01:36.355Z,100629.06
2024-04-13T21:04:05.692Z,100624.31
2024-04-13T21:06:34.377Z,100612.66
2024-04-13T21:09:03.326Z,100611.63
2024-04-13T21:11:32.004Z,100603.93
2024-04-13T21:14:01.046Z,100600.30
2024-04-13T21:16:29.548Z,100599.99
2024-04-13T21:18:58.584Z,100599.82
2024-04-13T21:21:27.123Z,100600.52
2024-04-13T21:23:55.982Z,100599.05
2024-04-13T21:26:24.349Z,100598.97
2024-04-13T21:28:52.698Z,100594.15
2024-04-13T21:31:20.976Z,100588.02
2024-04-13T21:33:49.346Z,100585.36
2024-04-13T21:36:17.828Z,100578.24
2024-04-13T21:38:46.210Z,100575.59
2024-04-13T21:41:15.135Z,100576.00
2024-04-13T21:43:45.122Z,100573.33
2024-04-13T21:46:13.774Z,100568.65
2024-04-13T21:48:42.108Z,100567.45
2024-04-13T21:51:10.326Z,100562.52
2024-04-13T21:53:40.455Z,100565.39
2024-04-13T21:56:08.527Z,100555.38
2024-04-13T21:58:39.427Z,100553.65
2024-04-13T22:01:07.980Z,100544.90
2024-04-13T22:03:36.552Z,100545.91
2024-04-13T22:06:05.908Z,100540.52
2024-04-13T22:08:46.595Z,100536.96
2024-04-13T22:11:19.263Z,100534.62
2024-04-13T22:13:48.023Z,100530.42
2024-04-13T22:16:16.338Z,100522.92
2024-04-13T22:18:45.032Z,100521.55
2024-04-13T22:21:14.239Z,100517.75
2024-04-13T22:23:42.449Z,100511.19
2024-04-13T22:26:10.845Z,100508.44
2024-04-13T22:28:39.626Z,100507.11
2024-04-13T22:31:08.381Z,100504.66
2024-04-13T22:33:36.827Z,100500.31
2024-04-13T22:36:06.673Z,100497.05
2024-04-13T22:38:35.891Z,100501.14
2024-04-13T22:41:04.503Z,100500.04
2024-04-13T22:43:33.483Z,100498.98
2024-04-13T22:46:03.252Z,100498.77
2024-04-13T22:48:32.053Z,100501.45
2024-04-13T22:51:01.612Z,100497.91
2024-04-13T22:53:30.156Z,100497.39
2024-04-13T22:55:58.839Z,100493.52
2024-04-13T22:58:28.048Z,100493.28
2024-04-13T23:00:57.365Z,100489.73
2024-04-13T23:03:26.156Z,100489.15
2024-04-13T23:06:02.478Z,100484.45
2024-04-13T23:08:31.575Z,100484.73
2024-04-13T23:11:00.152Z,100482.98
2024-04-13T23:13:30.392Z,100480.36
2024-04-13T23:16:01.950Z,100476.64
2024-04-13T23:18:30.806Z,100470.18
2024-04-13T23:21:00.053Z,100466.96
2024-04-13T23:23:28.370Z,100462.41
2024-04-13T23:25:56.785Z,100452.40
2024-04-13T23:28:25.364Z,100457.50
2024-04-13T23:30:54.771Z,100451.73
2024-04-13T23:33:22.965Z,100447.00
2024-04-13T23:36:00.386Z,100436.38
2024-04-13T23:38:31.451Z,100433.93
2024-04-13T23:41:00.401Z,100432.23
2024-04-13T23:43:28.729Z,100427.26
2024-04-13T23:46:05.839Z,100429.02
2024-04-13T23:48:35.562Z,100426.35
2024-04-13T23:51:05.911Z,100427.04
2024-04-13T23:53:35.620Z,100423.82
2024-04-13T23:56:07.471Z,100421.66
2024-04-13T23:58:35.481Z,100416.11
